createdAt,value
2022-08-07T00:00:45.924Z,19.57
2022-08-07T00:03:51.007Z,19.55
2022-08-07T00:06:54.808Z,19.54
2022-08-07T00:10:25.525Z,19.53
2022-08-07T00:13:23.782Z,19.52
2022-08-07T00:16:31.079Z,19.51
2022-08-07T00:20:01.436Z,19.49
2022-08-07T00:22:59.631Z,19.48
2022-08-07T00:26:13.340Z,19.49
2022-08-07T00:29:31.356Z,19.48
2022-08-07T00:32:37.284Z,19.48
2022-08-07T00:35:41.071Z,19.46
2022-08-07T00:38:44.800Z,19.45
2022-08-07T00:42:02.307Z,19.47
2022-08-07T00:45:16.331Z,19.48
2022-08-07T00:48:24.935Z,19.45
2022-08-07T00:51:57.197Z,19.40
2022-08-07T00:54:58.967Z,19.39
2022-08-07T00:58:08.771Z,19.38
2022-08-07T01:01:12.828Z,19.35
2022-08-07T01:04:21.682Z,19.33
2022-08-07T01:07:31.108Z,19.34
2022-08-07T01:10:35.590Z,19.30
2022-08-07T01:13:39.728Z,19.28
2022-08-07T01:17:00.333Z,19.31
2022-08-07T01:20:16.711Z,19.33
2022-08-07T01:23:35.484Z,19.35
2022-08-07T01:26:44.262Z,19.33
2022-08-07T01:29:56.559Z,19.32
2022-08-07T01:33:01.380Z,19.30
2022-08-07T01:36:09.951Z,19.27
2022-08-07T01:39:18.472Z,19.28
2022-08-07T01:42:38.619Z,19.24
2022-08-07T01:45:55.763Z,19.22
2022-08-07T01:49:03.785Z,19.20
2022-08-07T01:52:10.946Z,19.20
2022-08-07T01:55:24.233Z,19.17
2022-08-07T01:58:37.466Z,19.15
2022-08-07T02:02:02.027Z,19.13
2022-08-07T02:05:15.906Z,19.09
2022-08-07T02:08:41.748Z,19.08
2022-08-07T02:12:04.062Z,19.07
2022-08-07T02:15:14.444Z,19.06
2022-08-07T02:18:23.045Z,19.05
2022-08-07T02:21:56.741Z,19.03
2022-08-07T02:24:57.116Z,19.02
2022-08-07T02:28:07.011Z,19.02
2022-08-07T02:31:18.965Z,18.96
2022-08-07T02:34:34.940Z,18.95
2022-08-07T02:37:44.147Z,18.93
2022-08-07T02:40:53.847Z,18.91
2022-08-07T02:44:03.276Z,18.91
2022-08-07T02:47:19.610Z,18.89
2022-08-07T02:50:27.387Z,18.88
2022-08-07T02:53:38.463Z,18.86
2022-08-07T02:56:49.144Z,18.85
2022-08-07T03:00:01.239Z,18.82
2022-08-07T03:03:13.502Z,18.81
2022-08-07T03:06:26.289Z,18.79
2022-08-07T03:09:43.960Z,18.80
2022-08-07T03:12:51.891Z,18.77
2022-08-07T03:15:58.845Z,18.76
2022-08-07T03:19:06.847Z,18.75
2022-08-07T03:22:18.711Z,18.73
2022-08-07T03:25:25.896Z,18.72
2022-08-07T03:28:39.559Z,18.70
2022-08-07T03:31:49.925Z,18.69
2022-08-07T03:35:16.559Z,18.67
2022-08-07T03:38:29.733Z,18.65
2022-08-07T03:41:42.152Z,18.66
2022-08-07T03:44:53.719Z,18.62
2022-08-07T03:48:04.443Z,18.62
2022-08-07T03:51:15.268Z,18.60
2022-08-07T03:54:36.508Z,18.54
2022-08-07T03:58:34.646Z,18.57
2022-08-07T04:01:17.344Z,18.54
2022-08-07T04:04:25.623Z,18.54
2022-08-07T04:07:35.989Z,18.52
2022-08-07T04:10:54.001Z,18.52
2022-08-07T04:14:38.461Z,18.49
2022-08-07T04:18:11.234Z,18.47
2022-08-07T04:21:01.588Z,18.46
2022-08-07T04:24:10.455Z,18.47
2022-08-07T04:27:44.021Z,18.44
2022-08-07T04:30:55.539Z,18.40
2022-08-07T04:34:05.877Z,18.41
2022-08-07T04:37:22.548Z,18.41
2022-08-07T04:40:32.204Z,18.39
2022-08-07T04:44:10.307Z,18.38
2022-08-07T04:47:11.233Z,18.37
2022-08-07T04:50:39.824Z,18.34
2022-08-07T04:54:05.826Z,18.34
2022-08-07T04:58:11.507Z,18.31
2022-08-07T05:00:51.659Z,18.31
2022-08-07T05:04:08.912Z,18.29
2022-08-07T05:07:30.441Z,18.27
2022-08-07T05:10:48.412Z,18.28
2022-08-07T05:14:51.970Z,18.26
2022-08-07T05:17:51.466Z,18.27
2022-08-07T05:20:54.806Z,18.30
2022-08-07T05:24:02.216Z,18.30
2022-08-07T05:27:14.468Z,18.30
2022-08-07T05:30:40.159Z,18.30
2022-08-07T05:34:01.028Z,18.32
2022-08-07T05:37:10.312Z,18.31
2022-08-07T05:40:23.089Z,18.32
2022-08-07T05:44:07.758Z,18.33
2022-08-07T05:47:01.195Z,18.33
2022-08-07T05:50:07.609Z,18.33
2022-08-07T05:54:08.483Z,18.34
2022-08-07T05:56:40.768Z,18.35
2022-08-07T05:59:57.507Z,18.36
2022-08-07T06:03:08.107Z,18.37
2022-08-07T06:06:17.428Z,18.35
2022-08-07T06:10:04.622Z,18.35
2022-08-07T06:12:49.823Z,18.34
2022-08-07T06:15:56.746Z,18.35
2022-08-07T06:19:06.627Z,18.36
2022-08-07T06:22:22.784Z,18.36
2022-08-07T06:25:34.752Z,18.38
2022-08-07T06:28:49.448Z,18.39
2022-08-07T06:31:58.515Z,18.40
2022-08-07T06:35:10.543Z,18.44
2022-08-07T06:38:22.069Z,18.47
2022-08-07T06:42:02.477Z,18.47
2022-08-07T06:44:59.487Z,18.46
2022-08-07T06:48:06.658Z,18.49
2022-08-07T06:51:31.157Z,18.52
2022-08-07T06:55:33.827Z,18.64
2022-08-07T06:58:10.174Z,18.80
2022-08-07T07:01:23.145Z,18.82
2022-08-07T07:04:33.313Z,18.85
2022-08-07T07:07:59.772Z,18.87
2022-08-07T07:11:02.814Z,18.88
2022-08-07T07:14:23.298Z,18.89
2022-08-07T07:17:38.768Z,18.89
2022-08-07T07:20:48.786Z,18.88
2022-08-07T07:24:09.420Z,18.88
2022-08-07T07:27:19.521Z,18.86
2022-08-07T07:30:37.950Z,18.86
2022-08-07T07:33:44.598Z,18.85
2022-08-07T07:37:14.722Z,18.84
2022-08-07T07:40:28.055Z,18.82
2022-08-07T07:44:14.805Z,18.81
2022-08-07T07:47:14.302Z,18.81
2022-08-07T07:50:33.285Z,18.81
2022-08-07T07:53:51.830Z,18.80
2022-08-07T07:56:59.030Z,18.78
2022-08-07T08:00:07.547Z,18.76
2022-08-07T08:04:06.123Z,18.77
2022-08-07T08:06:52.332Z,18.76
2022-08-07T08:10:04.883Z,18.74
2022-08-07T08:13:15.165Z,18.69
2022-08-07T08:16:24.972Z,18.65
2022-08-07T08:20:19.263Z,18.63
2022-08-07T08:23:15.853Z,18.63
2022-08-07T08:26:40.434Z,18.61
2022-08-07T08:29:55.812Z,18.60
2022-08-07T08:33:03.218Z,18.59
2022-08-07T08:36:09.852Z,18.58
2022-08-07T08:39:16.620Z,18.56
2022-08-07T08:42:28.570Z,18.55
2022-08-07T08:45:58.473Z,18.55
2022-08-07T08:49:11.411Z,18.53
2022-08-07T08:52:23.296Z,18.51
2022-08-07T08:55:54.531Z,18.49
2022-08-07T08:59:13.502Z,18.49
2022-08-07T09:02:36.524Z,18.48
2022-08-07T09:05:49.098Z,18.46
2022-08-07T09:09:09.702Z,18.45
2022-08-07T09:12:41.876Z,18.44
2022-08-07T09:16:24.885Z,18.49
2022-08-07T09:19:53.301Z,18.53
2022-08-07T09:24:33.794Z,18.61
2022-08-07T09:26:47.701Z,18.69
2022-08-07T09:30:08.378Z,18.73
2022-08-07T09:33:52.684Z,18.76
2022-08-07T09:37:01.548Z,18.80
2022-08-07T09:40:17.932Z,18.83
2022-08-07T09:44:03.455Z,18.86
2022-08-07T09:47:50.854Z,18.90
2022-08-07T09:50:47.501Z,18.93
2022-08-07T09:54:02.693Z,18.96
2022-08-07T09:57:18.883Z,18.97
2022-08-07T10:00:32.132Z,18.99
2022-08-07T10:04:06.247Z,19.01
2022-08-07T10:07:52.970Z,19.03
2022-08-07T10:11:58.904Z,19.07
2022-08-07T10:14:54.310Z,19.10
2022-08-07T10:18:21.761Z,19.10
2022-08-07T10:22:12.216Z,19.10
2022-08-07T10:25:42.319Z,19.09
2022-08-07T10:29:00.256Z,19.02
2022-08-07T10:32:51.058Z,19.01
2022-08-07T10:36:10.910Z,19.02
2022-08-07T10:39:41.518Z,19.04
2022-08-07T10:43:03.029Z,19.00
2022-08-07T10:46:14.587Z,18.95
2022-08-07T10:49:49.901Z,18.89
2022-08-07T10:52:59.923Z,18.85
2022-08-07T10:56:20.929Z,18.82
2022-08-07T10:59:48.523Z,18.77
2022-08-07T11:03:04.039Z,18.75
2022-08-07T11:06:21.966Z,18.75
2022-08-07T11:10:09.131Z,18.74
2022-08-07T11:13:01.721Z,18.73
2022-08-07T11:16:11.199Z,18.72
2022-08-07T11:19:21.725Z,18.70
2022-08-07T11:22:45.835Z,18.69
2022-08-07T11:25:55.907Z,18.67
2022-08-07T11:29:41.095Z,18.65
2022-08-07T11:32:49.782Z,18.63
2022-08-07T11:36:10.433Z,18.64
2022-08-07T11:39:25.157Z,18.64
2022-08-07T11:42:59.123Z,18.62
2022-08-07T11:46:23.336Z,18.60
2022-08-07T11:50:30.105Z,18.61
2022-08-07T11:53:28.448Z,18.58
2022-08-07T11:56:56.123Z,18.57
2022-08-07T12:00:19.025Z,18.57
2022-08-07T12:03:49.545Z,18.58
2022-08-07T12:07:17.328Z,18.67
2022-08-07T12:10:28.893Z,18.78
2022-08-07T12:13:47.768Z,18.82
2022-08-07T12:16:56.285Z,18.89
2022-08-07T12:20:12.879Z,18.92
2022-08-07T12:24:06.403Z,18.92
2022-08-07T12:27:15.829Z,18.97
2022-08-07T12:30:25.458Z,19.00
2022-08-07T12:33:56.717Z,19.02
2022-08-07T12:36:59.116Z,19.03
2022-08-07T12:40:14.839Z,19.00
2022-08-07T12:44:02.039Z,19.02
2022-08-07T12:47:10.944Z,19.03
2022-08-07T12:50:38.311Z,19.03
2022-08-07T12:54:23.857Z,19.05
2022-08-07T12:57:18.769Z,19.10
2022-08-07T13:00:32.541Z,19.14
2022-08-07T13:04:03.098Z,19.14
2022-08-07T13:08:12.122Z,19.18
2022-08-07T13:11:27.207Z,19.18
2022-08-07T13:14:51.392Z,19.20
2022-08-07T13:18:04.507Z,19.23
2022-08-07T13:21:50.230Z,19.24
2022-08-07T13:24:52.496Z,19.27
2022-08-07T13:28:13.951Z,19.28
2022-08-07T13:31:32.026Z,19.29
2022-08-07T13:34:48.469Z,19.30
2022-08-07T13:38:01.809Z,19.32
2022-08-07T13:41:17.717Z,19.33
2022-08-07T13:44:27.030Z,19.34
2022-08-07T13:48:06.167Z,19.34
2022-08-07T13:51:26.870Z,19.34
2022-08-07T13:54:34.115Z,19.35
2022-08-07T13:57:51.636Z,19.37
2022-08-07T14:01:13.130Z,19.36
2022-08-07T14:04:21.423Z,19.39
2022-08-07T14:07:30.607Z,19.39
2022-08-07T14:10:42.107Z,19.40
2022-08-07T14:13:55.824Z,19.41
2022-08-07T14:17:13.243Z,19.41
2022-08-07T14:20:41.126Z,19.42
2022-08-07T14:24:00.591Z,19.44
2022-08-07T14:28:11.657Z,19.46
2022-08-07T14:30:36.039Z,19.46
2022-08-07T14:33:47.412Z,19.49
2022-08-07T14:36:56.176Z,19.50
2022-08-07T14:40:17.990Z,19.49
2022-08-07T14:43:55.792Z,19.51
2022-08-07T14:47:08.977Z,19.53
2022-08-07T14:50:20.669Z,19.53
2022-08-07T14:56:53.038Z,19.56
2022-08-07T15:00:04.614Z,19.56
2022-08-07T15:03:18.658Z,19.57
2022-08-07T15:06:26.895Z,19.57
2022-08-07T15:09:59.508Z,19.60
2022-08-07T15:13:00.953Z,19.61
2022-08-07T15:16:11.167Z,19.61
2022-08-07T15:19:19.741Z,19.61
2022-08-07T15:22:53.634Z,19.63
2022-08-07T15:26:02.693Z,19.65
2022-08-07T15:36:05.160Z,19.68
2022-08-07T15:39:12.393Z,19.68
2022-08-07T15:49:15.538Z,19.71
2022-08-07T15:52:30.765Z,19.72
2022-08-07T15:56:01.987Z,19.73
2022-08-07T15:59:04.353Z,19.74
2022-08-07T16:02:15.577Z,19.74
2022-08-07T16:05:23.270Z,19.76
2022-08-07T16:08:41.415Z,19.77
2022-08-07T16:12:12.178Z,19.77
2022-08-07T16:15:55.065Z,19.79
2022-08-07T16:19:13.449Z,19.81
2022-08-07T16:22:54.380Z,19.86
2022-08-07T16:26:14.402Z,19.93
2022-08-07T16:30:11.085Z,20.01
2022-08-07T16:32:56.521Z,20.07
2022-08-07T16:36:31.249Z,20.14
2022-08-07T16:40:03.789Z,20.19
2022-08-07T16:43:24.935Z,20.22
2022-08-07T16:47:38.618Z,20.27
2022-08-07T16:51:21.877Z,20.30
2022-08-07T16:54:55.200Z,20.36
2022-08-07T16:58:04.157Z,20.39
2022-08-07T17:01:34.305Z,20.44
2022-08-07T17:04:51.016Z,20.47
2022-08-07T17:08:02.680Z,20.49
2022-08-07T17:11:14.305Z,20.54
2022-08-07T17:14:24.521Z,20.57
2022-08-07T17:17:46.332Z,20.58
2022-08-07T17:20:53.952Z,20.60
2022-08-07T17:24:23.778Z,20.64
2022-08-07T17:27:50.857Z,20.65
2022-08-07T17:31:15.941Z,20.67
2022-08-07T17:34:35.053Z,20.68
2022-08-07T17:38:06.491Z,20.70
2022-08-07T17:42:01.979Z,20.72
2022-08-07T17:44:51.149Z,20.73
2022-08-07T17:48:04.489Z,20.74
2022-08-07T17:51:21.355Z,20.77
2022-08-07T17:54:53.252Z,20.77
2022-08-07T17:58:05.162Z,20.78
2022-08-07T18:01:21.507Z,20.80
2022-08-07T18:04:34.735Z,20.80
2022-08-07T18:07:44.977Z,20.83
2022-08-07T18:12:06.182Z,20.82
2022-08-07T18:14:28.863Z,20.76
2022-08-07T18:18:39.919Z,20.69
2022-08-07T18:21:29.551Z,20.62
2022-08-07T18:24:36.847Z,20.57
2022-08-07T18:28:33.088Z,20.49
2022-08-07T18:31:50.279Z,20.37
2022-08-07T18:35:11.331Z,20.51
2022-08-07T18:38:56.140Z,20.59
2022-08-07T18:41:56.142Z,20.65
2022-08-07T18:45:43.179Z,20.67
2022-08-07T18:50:19.054Z,20.70
2022-08-07T18:52:54.197Z,20.77
2022-08-07T18:56:13.375Z,20.81
2022-08-07T18:59:59.343Z,20.83
2022-08-07T19:03:12.197Z,20.83
2022-08-07T19:06:20.466Z,20.85
2022-08-07T19:09:57.401Z,20.88
2022-08-07T19:13:11.784Z,20.91
2022-08-07T19:17:01.473Z,20.93
2022-08-07T19:20:30.199Z,20.95
2022-08-07T19:23:57.154Z,21.00
2022-08-07T19:28:30.701Z,21.02
2022-08-07T19:31:05.417Z,21.05
2022-08-07T19:34:02.777Z,21.07
2022-08-07T19:37:17.587Z,21.08
2022-08-07T19:40:31.639Z,21.09
2022-08-07T19:43:48.889Z,21.12
2022-08-07T19:47:04.679Z,21.14
2022-08-07T19:50:41.574Z,21.14
2022-08-07T19:54:32.590Z,21.16
2022-08-07T19:58:00.226Z,21.20
2022-08-07T20:00:29.870Z,21.22
2022-08-07T20:03:36.472Z,21.21
2022-08-07T20:06:43.014Z,20.99
2022-08-07T20:10:36.314Z,21.11
2022-08-07T20:13:23.107Z,21.12
2022-08-07T20:16:34.954Z,21.05
2022-08-07T20:19:47.475Z,21.01
2022-08-07T20:22:59.456Z,20.98
2022-08-07T20:26:10.032Z,20.93
2022-08-07T20:29:49.098Z,20.90
2022-08-07T20:32:44.818Z,20.87
2022-08-07T20:36:03.104Z,20.84
2022-08-07T20:39:30.456Z,20.86
2022-08-07T20:42:34.501Z,20.77
2022-08-07T20:46:25.746Z,20.67
2022-08-07T20:49:59.396Z,20.60
2022-08-07T20:52:51.297Z,20.52
2022-08-07T20:55:58.958Z,20.45
2022-08-07T20:59:06.051Z,20.40
2022-08-07T21:02:55.077Z,20.36
2022-08-07T21:06:21.745Z,20.32
2022-08-07T21:09:51.924Z,20.28
2022-08-07T21:13:01.793Z,20.24
2022-08-07T21:16:09.150Z,20.22
2022-08-07T21:19:15.007Z,20.19
2022-08-07T21:22:28.682Z,20.16
2022-08-07T21:25:44.992Z,20.12
2022-08-07T21:29:04.374Z,20.10
2022-08-07T21:32:47.430Z,20.07
2022-08-07T21:36:04.038Z,20.06
2022-08-07T21:39:46.669Z,20.03
2022-08-07T21:42:51.015Z,20.01
2022-08-07T21:46:10.050Z,19.99
2022-08-07T21:49:40.720Z,19.96
2022-08-07T21:53:08.584Z,19.95
2022-08-07T21:56:36.226Z,19.93
2022-08-07T22:00:04.673Z,19.90
2022-08-07T22:03:16.475Z,19.89
2022-08-07T22:06:29.998Z,19.87
2022-08-07T22:09:54.459Z,19.86
2022-08-07T22:13:02.611Z,19.85
2022-08-07T22:16:43.042Z,19.84
2022-08-07T22:19:43.425Z,19.83
2022-08-07T22:22:50.819Z,19.83
2022-08-07T22:26:05.795Z,19.81
2022-08-07T22:29:37.710Z,19.74
2022-08-07T22:32:58.990Z,19.78
2022-08-07T22:36:12.040Z,19.78
2022-08-07T22:39:28.328Z,19.77
2022-08-07T22:42:36.337Z,19.75
2022-08-07T22:46:40.832Z,19.74
2022-08-07T22:49:51.769Z,19.72
2022-08-07T22:54:06.493Z,19.71
2022-08-07T22:57:17.014Z,19.71
2022-08-07T23:00:28.602Z,19.68
2022-08-07T23:03:57.885Z,19.66
2022-08-07T23:07:30.141Z,19.64
2022-08-07T23:10:46.268Z,19.63
2022-08-07T23:14:15.672Z,19.62
2022-08-07T23:17:36.005Z,19.60
2022-08-07T23:21:16.625Z,19.57
2022-08-07T23:24:38.687Z,19.52
2022-08-07T23:28:21.757Z,19.50
2022-08-07T23:34:24.041Z,19.49
2022-08-07T23:35:16.571Z,19.46
2022-08-07T23:38:42.648Z,19.44
2022-08-07T23:42:04.583Z,19.42
2022-08-07T23:46:01.463Z,19.41
2022-08-07T23:49:15.449Z,19.39
2022-08-07T23:52:58.009Z,19.37
2022-08-07T23:56:01.773Z,19.36
